KCFD/CFD METAR and TAF weather

Enter ICAO airport designator
Station Type Date Time Source
KCFD METAR 2021/01/22 06:55 UTC NOAA

KCFD 220655Z AUTO 34005KT 10SM SCT017 SCT080 OVC110 15/15 A2994 RMK AO2 T01450145


Station Type Date Time Source
KCFD Decoded METAR 2021/01/22 06:55 UTC NOAA

Station name not available
Jan 22, 2021 - 01:55 AM EST / 2021.01.22 0655 UTC
Wind: from the NNW (340 degrees) at 6 MPH (5 KT):0
Visibility: 10 mile(s):0
Sky conditions: overcast
Temperature: 58.1 F (14.5 C)
Dew Point: 58.1 F (14.5 C)
Relative Humidity: 100%
Pressure (altimeter): 29.94 in. Hg (1013 hPa)
ob: KCFD 220655Z AUTO 34005KT 10SM SCT017 SCT080 OVC110 15/15 A2994 RMK AO2 T01450145
cycle: 7

Station Type Date Time Source
KCFD TAF UTC NOAA

Error!

Example: see airport list